| time (UTC) | temp F | wind direction | speed MPH | gust MPH | rain 1hr in | rain 24hr in | rain mn in | humidity % | barometer mb |
| 20260905234625 | 93 | 45 | 0.0 | 0.0 | 0.00 | 0.00 | 0.00 | 51 | 1057.1 |
| 20260905233624 | 94 | 360 | 0.0 | 0.0 | 0.00 | 0.00 | 0.00 | 50 | 1057.1 |
| 20260905232526 | 94 | 15 | 1.0 | 4.0 | 0.00 | 0.00 | 0.00 | 49 | 1056.9 |
| 20260905231527 | 95 | 16 | 2.0 | 4.0 | 0.00 | 0.00 | 0.00 | 49 | 1056.9 |
| 20260905230526 | 95 | 32 | 0.0 | 2.0 | 0.00 | 0.00 | 0.00 | 47 | 1056.8 |
| 20260905225625 | 95 | 40 | 1.0 | 2.0 | 0.00 | 0.00 | 0.00 | 47 | 1056.9 |
| 20260905223625 | 98 | 44 | 4.0 | 8.0 | 0.00 | 0.00 | 0.00 | 39 | 1056.9 |
| 20260905222627 | 99 | 288 | 3.0 | 6.0 | 0.00 | 0.00 | 0.00 | 38 | 1056.8 |
| 20260905221624 | 100 | 318 | 3.0 | 4.0 | 0.00 | 0.00 | 0.00 | 38 | 1056.6 |
| 20260905215724 | 99 | 32 | 2.0 | 4.0 | 0.00 | 0.00 | 0.00 | 40 | 1056.7 |
| 20260905210724 | 99 | 242 | 0.0 | 3.0 | 0.00 | 0.00 | 0.00 | 40 | 1057.1 |
| 20260905210626 | 99 | 62 | 0.0 | 4.0 | 0.00 | 0.00 | 0.00 | 40 | 1057.1 |
| 20260905205724 | 98 | 298 | 2.0 | 4.0 | 0.00 | 0.00 | 0.00 | 41 | 1057.0 |
| 20260905204726 | 99 | 297 | 0.0 | 3.0 | 0.00 | 0.00 | 0.00 | 39 | 1057.1 |
| 20260905203743 | 100 | 282 | 4.0 | 5.0 | 0.00 | 0.00 | 0.00 | 39 | 1057.1 |
| 20260905202726 | 101 | 288 | 3.0 | 6.0 | 0.00 | 0.00 | 0.00 | 37 | 1057.4 |
| 20260905201727 | 100 | 286 | 3.0 | 7.0 | 0.00 | 0.00 | 0.00 | 39 | 1057.5 |
| 20260905200824 | 99 | 28 | 3.0 | 5.0 | 0.00 | 0.00 | 0.00 | 40 | 1057.7 |
| 20260905194925 | 99 | 345 | 1.0 | 4.0 | 0.00 | 0.00 | 0.00 | 41 | 1057.6 |
| 20260905193924 | 98 | 285 | 2.0 | 5.0 | 0.00 | 0.00 | 0.00 | 42 | 1057.8 |
| 20260905193024 | 98 | 203 | 1.0 | 3.0 | 0.00 | 0.00 | 0.00 | 43 | 1057.7 |
| 20260905192025 | 98 | 237 | 2.0 | 8.0 | 0.00 | 0.00 | 0.00 | 42 | 1058.0 |
| 20260905191123 | 99 | 327 | 3.0 | 5.0 | 0.00 | 0.00 | 0.00 | 43 | 1058.2 |
| 20260905190127 | 98 | 334 | 2.0 | 6.0 | 0.00 | 0.00 | 0.00 | 42 | 1058.3 |
| 20260905185124 | 97 | 247 | 0.0 | 0.0 | 0.00 | 0.00 | 0.00 | 44 | 1058.4 |
| 20260905184123 | 97 | 225 | 5.0 | 7.0 | 0.00 | 0.00 | 0.00 | 43 | 1058.5 |
| 20260905183125 | 98 | 278 | 4.0 | 6.0 | 0.00 | 0.00 | 0.00 | 42 | 1058.7 |
| 20260905182126 | 97 | 347 | 2.0 | 5.0 | 0.00 | 0.00 | 0.00 | 43 | 1058.8 |
| 20260905181126 | 97 | 228 | 6.0 | 11.0 | 0.00 | 0.00 | 0.00 | 44 | 1058.9 |
| 20260905181024 | 97 | 230 | 6.0 | 8.0 | 0.00 | 0.00 | 0.00 | 44 | 1058.9 |
| 20260905180023 | 97 | 279 | 4.0 | 5.0 | 0.00 | 0.00 | 0.00 | 43 | 1058.9 |
| 20260905175042 | 97 | 300 | 4.0 | 7.0 | 0.00 | 0.00 | 0.00 | 45 | 1058.9 |
| 20260905173123 | 95 | 1 | 4.0 | 6.0 | 0.00 | 0.00 | 0.00 | 46 | 1059.1 |
| 20260905173041 | 95 | 268 | 4.0 | 6.0 | 0.00 | 0.00 | 0.00 | 47 | 1059.2 |
| 20260905172024 | 96 | 239 | 4.0 | 7.0 | 0.00 | 0.00 | 0.00 | 47 | 1059.3 |
| 20260905170026 | 97 | 197 | 2.0 | 5.0 | 0.00 | 0.00 | 0.00 | 46 | 1059.5 |
| 20260905165123 | 97 | 270 | 1.0 | 2.0 | 0.00 | 0.00 | 0.00 | 48 | 1059.6 |
| 20260905164123 | 96 | 356 | 2.0 | 5.0 | 0.00 | 0.00 | 0.00 | 50 | 1059.8 |
| 20260905163125 | 94 | 225 | 2.0 | 4.0 | 0.00 | 0.00 | 0.00 | 52 | 1059.7 |
| 20260905162223 | 94 | 261 | 3.0 | 4.0 | 0.00 | 0.00 | 0.00 | 52 | 1059.8 |
| 20260905161322 | 93 | 38 | 3.0 | 7.0 | 0.00 | 0.00 | 0.00 | 54 | 1060.0 |
| 20260905160323 | 93 | 237 | 3.0 | 6.0 | 0.00 | 0.00 | 0.00 | 53 | 1060.1 |
| 20260905154340 | 92 | 313 | 3.0 | 4.0 | 0.00 | 0.00 | 0.00 | 54 | 1060.1 |
| 20260905154226 | 92 | 245 | 4.0 | 5.0 | 0.00 | 0.00 | 0.00 | 55 | 1060.1 |
| 20260905153225 | 92 | 237 | 1.0 | 4.0 | 0.00 | 0.00 | 0.00 | 55 | 1060.3 |
| 20260905151324 | 90 | 253 | 2.0 | 4.0 | 0.00 | 0.00 | 0.00 | 60 | 1060.2 |
| 20260905151227 | 90 | 332 | 1.0 | 3.0 | 0.00 | 0.00 | 0.00 | 61 | 1060.1 |
| 20260905151123 | 89 | 313 | 1.0 | 2.0 | 0.00 | 0.00 | 0.00 | 61 | 1060.2 |
| 20260905150125 | 89 | 234 | 4.0 | 6.0 | 0.00 | 0.00 | 0.00 | 61 | 1060.2 |
| 20260905150024 | 89 | 229 | 2.0 | 3.0 | 0.00 | 0.00 | 0.00 | 61 | 1060.3 |
| 20260905145027 | 88 | 244 | 1.0 | 2.0 | 0.00 | 0.00 | 0.00 | 62 | 1060.1 |
| 20260905144123 | 87 | 225 | 3.0 | 5.0 | 0.00 | 0.00 | 0.00 | 64 | 1060.1 |
| 20260905143124 | 87 | 268 | 0.0 | 2.0 | 0.00 | 0.00 | 0.00 | 66 | 1060.2 |
| 20260905141125 | 87 | 247 | 1.0 | 2.0 | 0.00 | 0.00 | 0.00 | 67 | 1060.2 |
| 20260905140124 | 87 | 225 | 0.0 | 1.0 | 0.00 | 0.00 | 0.00 | 69 | 1060.4 |
| 20260905135125 | 87 | 225 | 2.0 | 3.0 | 0.00 | 0.00 | 0.00 | 73 | 1060.4 |
| 20260905133224 | 83 | 225 | 1.0 | 2.0 | 0.00 | 0.00 | 0.00 | 87 | 1060.4 |
| 20260905133124 | 83 | 197 | 0.0 | 2.0 | 0.00 | 0.00 | 0.00 | 88 | 1060.4 |
| 20260905132124 | 81 | 157 | 0.0 | 0.0 | 0.00 | 0.00 | 0.00 | 92 | 1060.4 |
| 20260905131224 | 79 | 157 | 0.0 | 0.0 | 0.00 | 0.00 | 0.00 | 96 | 1060.3 |
| 20260905125323 | 75 | 157 | 0.0 | 0.0 | 0.00 | 0.00 | 0.00 | 96 | 1060.1 |
| 20260905124323 | 75 | 157 | 0.0 | 0.0 | 0.00 | 0.00 | 0.00 | 97 | 1060.2 |
| 20260905123324 | 75 | 157 | 0.0 | 0.0 | 0.00 | 0.00 | 0.00 | 96 | 1060.1 |
| 20260905123224 | 75 | 157 | 0.0 | 0.0 | 0.00 | 0.00 | 0.00 | 97 | 1060.2 |
| 20260905122222 | 74 | 157 | 0.0 | 0.0 | 0.00 | 0.00 | 0.00 | 96 | 1060.1 |
| 20260905121322 | 73 | 157 | 0.0 | 0.0 | 0.00 | 0.00 | 0.00 | 97 | 1060.0 |
| 20260905120340 | 72 | 157 | 0.0 | 0.0 | 0.00 | 0.00 | 0.00 | 96 | 1060.1 |
| 20260905120223 | 72 | 157 | 0.0 | 0.0 | 0.00 | 0.00 | 0.00 | 97 | 1060.1 |
| 20260905115225 | 72 | 157 | 0.0 | 0.0 | 0.00 | 0.00 | 0.00 | 97 | 1060.1 |
| 20260905114222 | 72 | 157 | 0.0 | 0.0 | 0.00 | 0.00 | 0.00 | 96 | 1060.0 |
| 20260905113223 | 72 | 157 | 0.0 | 0.0 | 0.00 | 0.00 | 0.00 | 97 | 1060.0 |
| 20260905113123 | 72 | 157 | 0.0 | 0.0 | 0.00 | 0.00 | 0.00 | 96 | 1059.9 |
| 20260905112223 | 72 | 157 | 0.0 | 0.0 | 0.00 | 0.00 | 0.00 | 97 | 1059.9 |
| 20260905111224 | 72 | 157 | 0.0 | 0.0 | 0.00 | 0.00 | 0.00 | 96 | 1059.9 |
| 20260905110223 | 72 | 157 | 0.0 | 0.0 | 0.00 | 0.00 | 0.00 | 97 | 1059.7 |
| 20260905105224 | 72 | 157 | 0.0 | 0.0 | 0.00 | 0.00 | 0.00 | 96 | 1059.7 |
| 20260905104224 | 72 | 157 | 0.0 | 0.0 | 0.00 | 0.00 | 0.00 | 95 | 1059.7 |
| 20260905102223 | 72 | 157 | 0.0 | 0.0 | 0.00 | 0.00 | 0.00 | 95 | 1059.7 |
| 20260905101225 | 72 | 157 | 0.0 | 0.0 | 0.00 | 0.00 | 0.00 | 95 | 1059.7 |
| 20260905100323 | 72 | 157 | 0.0 | 0.0 | 0.00 | 0.00 | 0.00 | 96 | 1059.6 |
| 20260905095422 | 72 | 157 | 0.0 | 0.0 | 0.00 | 0.00 | 0.00 | 96 | 1059.5 |
| 20260905094424 | 72 | 157 | 0.0 | 0.0 | 0.00 | 0.00 | 0.00 | 95 | 1059.5 |
| 20260905093424 | 72 | 157 | 0.0 | 0.0 | 0.00 | 0.00 | 0.00 | 96 | 1059.4 |
| 20260905093322 | 72 | 157 | 0.0 | 0.0 | 0.00 | 0.00 | 0.00 | 96 | 1059.4 |
| 20260905092324 | 72 | 157 | 0.0 | 0.0 | 0.00 | 0.00 | 0.00 | 96 | 1059.4 |
| 20260905090322 | 72 | 157 | 0.0 | 0.0 | 0.00 | 0.00 | 0.00 | 96 | 1059.4 |
| 20260905085324 | 73 | 157 | 0.0 | 0.0 | 0.00 | 0.00 | 0.00 | 94 | 1059.4 |
| 20260905083325 | 73 | 157 | 0.0 | 0.0 | 0.00 | 0.00 | 0.00 | 94 | 1059.5 |
| 20260905083225 | 73 | 157 | 0.0 | 0.0 | 0.00 | 0.00 | 0.00 | 95 | 1059.5 |
| 20260905083125 | 73 | 157 | 0.0 | 0.0 | 0.00 | 0.00 | 0.00 | 95 | 1059.5 |
| 20260905082125 | 73 | 157 | 0.0 | 0.0 | 0.00 | 0.00 | 0.00 | 95 | 1059.5 |
| 20260905080223 | 73 | 157 | 0.0 | 0.0 | 0.00 | 0.00 | 0.00 | 94 | 1059.5 |
| 20260905075223 | 73 | 157 | 0.0 | 0.0 | 0.00 | 0.00 | 0.00 | 94 | 1059.4 |
| 20260905074224 | 73 | 157 | 0.0 | 0.0 | 0.00 | 0.00 | 0.00 | 94 | 1059.4 |
| 20260905073323 | 73 | 157 | 0.0 | 0.0 | 0.00 | 0.00 | 0.00 | 93 | 1059.6 |
| 20260905072338 | 73 | 157 | 0.0 | 0.0 | 0.00 | 0.00 | 0.00 | 92 | 1059.6 |
| 20260905071340 | 73 | 157 | 0.0 | 0.0 | 0.00 | 0.00 | 0.00 | 92 | 1059.7 |
| 20260905070338 | 74 | 157 | 0.0 | 0.0 | 0.00 | 0.00 | 0.00 | 92 | 1059.6 |
| 20260905064324 | 74 | 157 | 0.0 | 0.0 | 0.00 | 0.00 | 0.00 | 91 | 1059.6 |
| 20260905063421 | 74 | 157 | 0.0 | 0.0 | 0.00 | 0.00 | 0.00 | 92 | 1059.6 |
| 20260905062424 | 74 | 157 | 0.0 | 0.0 | 0.00 | 0.00 | 0.00 | 91 | 1059.7 |
| 20260905061423 | 74 | 157 | 0.0 | 0.0 | 0.00 | 0.00 | 0.00 | 90 | 1059.9 |
| 20260905055424 | 75 | 157 | 0.0 | 0.0 | 0.00 | 0.00 | 0.00 | 90 | 1060.0 |
| 20260905054521 | 75 | 157 | 0.0 | 0.0 | 0.00 | 0.00 | 0.00 | 90 | 1060.1 |
| 20260905053523 | 75 | 157 | 0.0 | 0.0 | 0.00 | 0.00 | 0.00 | 88 | 1060.1 |
| 20260905052523 | 75 | 157 | 0.0 | 0.0 | 0.00 | 0.00 | 0.00 | 87 | 1060.1 |
| 20260905051521 | 75 | 157 | 0.0 | 0.0 | 0.00 | 0.00 | 0.00 | 87 | 1060.1 |
| 20260905044621 | 76 | 157 | 0.0 | 0.0 | 0.00 | 0.00 | 0.00 | 86 | 1059.9 |
| 20260905044518 | 76 | 157 | 0.0 | 0.0 | 0.00 | 0.00 | 0.00 | 86 | 1059.8 |
| 20260905042535 | 77 | 157 | 0.0 | 0.0 | 0.00 | 0.00 | 0.00 | 84 | 1059.8 |
| 20260905041519 | 77 | 157 | 0.0 | 0.0 | 0.00 | 0.00 | 0.00 | 84 | 1059.8 |
| 20260905040519 | 77 | 157 | 0.0 | 0.0 | 0.00 | 0.00 | 0.00 | 85 | 1059.8 |
| 20260905035519 | 77 | 157 | 0.0 | 0.0 | 0.00 | 0.00 | 0.00 | 85 | 1059.8 |
| 20260905035420 | 77 | 157 | 0.0 | 0.0 | 0.00 | 0.00 | 0.00 | 86 | 1059.8 |
| 20260905034420 | 76 | 157 | 0.0 | 0.0 | 0.00 | 0.00 | 0.00 | 85 | 1060.0 |
| 20260905034318 | 76 | 157 | 0.0 | 0.0 | 0.00 | 0.00 | 0.00 | 85 | 1060.0 |
| 20260905033319 | 77 | 157 | 0.0 | 0.0 | 0.00 | 0.00 | 0.00 | 85 | 1059.8 |
| 20260905032319 | 77 | 157 | 0.0 | 0.0 | 0.00 | 0.00 | 0.00 | 83 | 1060.1 |
| 20260905031318 | 77 | 157 | 0.0 | 0.0 | 0.00 | 0.00 | 0.00 | 82 | 1060.1 |
| 20260905030318 | 77 | 157 | 0.0 | 0.0 | 0.00 | 0.00 | 0.00 | 82 | 1060.1 |
| 20260905024322 | 78 | 157 | 0.0 | 0.0 | 0.00 | 0.00 | 0.00 | 81 | 1059.9 |
| 20260905023319 | 78 | 157 | 0.0 | 0.0 | 0.00 | 0.00 | 0.00 | 79 | 1059.8 |
| 20260905023221 | 78 | 157 | 0.0 | 0.0 | 0.00 | 0.00 | 0.00 | 80 | 1059.9 |
| 20260905020321 | 79 | 157 | 0.0 | 0.0 | 0.00 | 0.00 | 0.00 | 78 | 1059.7 |
| 20260905020219 | 79 | 157 | 0.0 | 0.0 | 0.00 | 0.00 | 0.00 | 78 | 1059.6 |
| 20260905015219 | 80 | 157 | 0.0 | 0.0 | 0.00 | 0.00 | 0.00 | 73 | 1059.6 |
| 20260905013220 | 81 | 157 | 0.0 | 0.0 | 0.00 | 0.00 | 0.00 | 69 | 1059.3 |
| 20260905012119 | 82 | 157 | 0.0 | 0.0 | 0.00 | 0.00 | 0.00 | 67 | 1059.2 |
| 20260905011118 | 83 | 157 | 0.0 | 0.0 | 0.00 | 0.00 | 0.00 | 64 | 1059.1 |
| 20260905010119 | 84 | 157 | 0.0 | 0.0 | 0.00 | 0.00 | 0.00 | 61 | 1059.1 |
| 20260905010023 | 84 | 157 | 0.0 | 0.0 | 0.00 | 0.00 | 0.00 | 60 | 1059.1 |
| 20260905005918 | 84 | 157 | 0.0 | 0.0 | 0.00 | 0.00 | 0.00 | 60 | 1059.2 |
| 20260905005818 | 84 | 157 | 0.0 | 0.0 | 0.00 | 0.00 | 0.00 | 60 | 1059.1 |
| 20260905004819 | 85 | 157 | 0.0 | 0.0 | 0.00 | 0.00 | 0.00 | 59 | 1059.1 |
| 20260905004719 | 86 | 157 | 0.0 | 0.0 | 0.00 | 0.00 | 0.00 | 58 | 1059.0 |
| 20260905003721 | 87 | 157 | 0.0 | 0.0 | 0.00 | 0.00 | 0.00 | 56 | 1058.8 |
| 20260905002818 | 88 | 157 | 0.0 | 0.0 | 0.00 | 0.00 | 0.00 | 54 | 1058.9 |
| 20260905001820 | 90 | 157 | 0.0 | 0.0 | 0.00 | 0.00 | 0.00 | 55 | 1058.8 |
| 20260905000820 | 92 | 157 | 0.0 | 0.0 | 0.00 | 0.00 | 0.00 | 52 | 1058.7 |
| 20260905000720 | 93 | 157 | 0.0 | 0.0 | 0.00 | 0.00 | 0.00 | 51 | 1058.7 |
| 20260904235718 | 95 | 157 | 0.0 | 0.0 | 0.00 | 0.00 | 0.00 | 46 | 1058.7 |